createdAt,value
2024-03-14T00:01:13.806Z,84.14
2024-03-14T00:03:41.362Z,83.96
2024-03-14T00:06:10.192Z,84.02
2024-03-14T00:08:37.928Z,84.23
2024-03-14T00:11:05.638Z,84.35
2024-03-14T00:13:34.956Z,84.09
2024-03-14T00:16:02.657Z,83.77
2024-03-14T00:18:32.678Z,83.93
2024-03-14T00:21:00.777Z,84.01
2024-03-14T00:23:28.496Z,84.14
2024-03-14T00:25:57.392Z,84.40
2024-03-14T00:28:24.942Z,84.52
2024-03-14T00:30:52.304Z,84.58
2024-03-14T00:33:21.250Z,84.89
2024-03-14T00:35:49.283Z,85.00
2024-03-14T00:38:16.930Z,85.15
2024-03-14T00:40:45.921Z,85.38
2024-03-14T00:43:13.777Z,85.57
2024-03-14T00:45:41.450Z,85.76
2024-03-14T00:48:10.329Z,85.80
2024-03-14T00:50:38.102Z,85.68
2024-03-14T00:53:05.679Z,85.45
2024-03-14T00:55:34.542Z,85.66
2024-03-14T00:58:02.515Z,85.42
2024-03-14T01:00:30.199Z,85.09
2024-03-14T01:02:59.207Z,85.17
2024-03-14T01:05:26.739Z,85.27
2024-03-14T01:07:54.293Z,85.43
2024-03-14T01:10:23.416Z,85.54
2024-03-14T01:12:50.937Z,85.55
2024-03-14T01:15:18.657Z,85.74
2024-03-14T01:17:47.802Z,85.91
2024-03-14T01:20:15.560Z,85.84
2024-03-14T01:22:43.140Z,86.10
2024-03-14T01:25:11.920Z,86.09
2024-03-14T01:27:39.624Z,86.10
2024-03-14T01:30:07.461Z,85.92
2024-03-14T01:32:36.504Z,85.88
2024-03-14T01:35:04.093Z,85.82
2024-03-14T01:37:31.758Z,85.67
2024-03-14T01:40:00.535Z,85.87
2024-03-14T01:42:28.237Z,85.62
2024-03-14T01:44:55.921Z,85.74
2024-03-14T01:47:24.764Z,85.72
2024-03-14T01:49:52.316Z,85.44
2024-03-14T01:52:19.951Z,85.35
2024-03-14T01:54:48.868Z,85.32
2024-03-14T01:57:16.628Z,85.45
2024-03-14T01:59:44.600Z,85.42
2024-03-14T02:02:13.482Z,85.15
2024-03-14T02:04:41.039Z,85.09
2024-03-14T02:07:08.806Z,85.23
2024-03-14T02:09:37.694Z,85.33
2024-03-14T02:12:05.401Z,85.61
2024-03-14T02:14:33.228Z,85.58
2024-03-14T02:17:02.007Z,85.57
2024-03-14T02:19:29.881Z,85.70
2024-03-14T02:21:57.471Z,85.83
2024-03-14T02:24:26.347Z,86.05
2024-03-14T02:26:53.916Z,86.18
2024-03-14T02:29:21.344Z,86.27
2024-03-14T02:31:50.235Z,86.33
2024-03-14T02:34:17.796Z,86.63
2024-03-14T02:36:45.469Z,86.49
2024-03-14T02:39:14.525Z,86.61
2024-03-14T02:41:42.322Z,86.71
2024-03-14T02:44:10.287Z,86.84
2024-03-14T02:46:39.075Z,86.90
2024-03-14T02:49:06.747Z,86.93
2024-03-14T02:51:34.290Z,86.86
2024-03-14T02:54:03.238Z,86.88
2024-03-14T02:56:30.857Z,86.77
2024-03-14T02:58:58.504Z,86.63
2024-03-14T03:01:27.300Z,86.81
2024-03-14T03:03:54.960Z,86.58
2024-03-14T03:06:22.687Z,86.48
2024-03-14T03:08:52.073Z,86.79
2024-03-14T03:11:19.708Z,86.71
2024-03-14T03:13:47.234Z,86.44
2024-03-14T03:16:16.131Z,86.13
2024-03-14T03:18:43.806Z,86.31
2024-03-14T03:21:11.603Z,86.32
2024-03-14T03:23:40.439Z,86.36
2024-03-14T03:26:08.002Z,86.28
2024-03-14T03:28:35.869Z,86.23
2024-03-14T03:31:04.759Z,86.42
2024-03-14T03:33:32.410Z,86.43
2024-03-14T03:36:00.119Z,86.71
2024-03-14T03:38:28.981Z,86.83
2024-03-14T03:40:56.627Z,87.07
2024-03-14T03:43:24.188Z,86.62
2024-03-14T03:45:52.977Z,86.76
2024-03-14T03:48:21.069Z,87.04
2024-03-14T03:50:48.728Z,87.15
2024-03-14T03:53:17.600Z,87.51
2024-03-14T03:55:45.163Z,87.36
2024-03-14T03:58:12.825Z,87.38
2024-03-14T04:00:41.738Z,87.48
2024-03-14T04:03:10.891Z,87.56
2024-03-14T04:05:40.431Z,87.74
2024-03-14T04:08:08.603Z,87.80
2024-03-14T04:10:36.376Z,87.73
2024-03-14T04:13:05.243Z,87.85
2024-03-14T04:15:32.911Z,87.94
2024-03-14T04:18:00.664Z,88.22
2024-03-14T04:20:29.798Z,87.87
2024-03-14T04:22:57.526Z,88.19
2024-03-14T04:25:25.089Z,87.89
2024-03-14T04:27:54.000Z,87.84
2024-03-14T04:30:21.545Z,87.32
2024-03-14T04:32:49.242Z,87.08
2024-03-14T04:35:18.323Z,86.77
2024-03-14T04:37:45.844Z,86.92
2024-03-14T04:40:13.454Z,86.83
2024-03-14T04:42:42.420Z,87.07
2024-03-14T04:45:10.158Z,87.10
2024-03-14T04:47:37.837Z,87.00
2024-03-14T04:50:06.707Z,86.91
2024-03-14T04:52:34.277Z,86.44
2024-03-14T04:55:01.754Z,86.23
2024-03-14T04:57:30.647Z,86.10
2024-03-14T04:59:58.253Z,86.43
2024-03-14T05:02:25.946Z,86.22
2024-03-14T05:04:54.839Z,86.34
2024-03-14T05:07:22.388Z,86.36
2024-03-14T05:09:50.372Z,86.57
2024-03-14T05:12:19.190Z,86.55
2024-03-14T05:14:47.015Z,86.90
2024-03-14T05:17:14.672Z,86.76
2024-03-14T05:19:43.470Z,86.94
2024-03-14T05:22:11.225Z,86.70
2024-03-14T05:24:38.790Z,86.81
2024-03-14T05:27:07.719Z,86.81
2024-03-14T05:29:35.743Z,86.60
2024-03-14T05:32:03.411Z,86.61
2024-03-14T05:34:32.200Z,86.14
2024-03-14T05:36:59.863Z,86.00
2024-03-14T05:39:27.230Z,85.80
2024-03-14T05:41:56.230Z,85.71
2024-03-14T05:44:23.759Z,85.43
2024-03-14T05:46:51.328Z,85.46
2024-03-14T05:49:20.019Z,85.26
2024-03-14T05:51:47.973Z,85.28
2024-03-14T05:54:15.578Z,85.49
2024-03-14T05:56:44.526Z,85.25
2024-03-14T05:59:12.184Z,85.23
2024-03-14T06:01:39.903Z,85.25
2024-03-14T06:04:08.744Z,85.60
2024-03-14T06:06:36.317Z,85.65
2024-03-14T06:09:04.005Z,85.78
2024-03-14T06:11:33.084Z,85.98
2024-03-14T06:14:01.041Z,86.11
2024-03-14T06:16:28.590Z,86.19
2024-03-14T06:18:57.561Z,86.16
2024-03-14T06:21:25.450Z,86.00
2024-03-14T06:23:53.244Z,85.78
2024-03-14T06:26:22.097Z,85.73
2024-03-14T06:28:49.758Z,85.16
2024-03-14T06:31:17.342Z,84.58
2024-03-14T06:33:46.641Z,84.34
2024-03-14T06:36:14.680Z,83.96
2024-03-14T06:38:44.702Z,84.16
2024-03-14T06:41:12.261Z,83.42
2024-03-14T06:43:39.821Z,83.21
2024-03-14T06:46:08.712Z,82.92
2024-03-14T06:48:36.328Z,83.09
2024-03-14T06:51:04.185Z,82.94
2024-03-14T06:53:33.033Z,83.73
2024-03-14T06:56:00.998Z,83.37
2024-03-14T06:58:28.689Z,83.09
2024-03-14T07:00:57.821Z,83.04
2024-03-14T07:03:25.553Z,83.11
2024-03-14T07:05:53.308Z,83.26
2024-03-14T07:08:22.265Z,83.14
2024-03-14T07:10:49.896Z,82.66
2024-03-14T07:13:17.490Z,81.97
2024-03-14T07:15:46.695Z,81.65
2024-03-14T07:18:14.334Z,80.96
2024-03-14T07:20:42.125Z,80.70
2024-03-14T07:23:10.905Z,80.58
2024-03-14T07:25:38.466Z,80.45
2024-03-14T07:28:06.129Z,80.51
2024-03-14T07:30:35.015Z,80.01
2024-03-14T07:33:02.890Z,79.61
2024-03-14T07:35:30.956Z,79.77
2024-03-14T07:38:02.103Z,79.40
2024-03-14T07:40:29.959Z,79.19
2024-03-14T07:42:58.851Z,78.98
2024-03-14T07:45:26.442Z,78.72
2024-03-14T07:47:54.697Z,78.39
2024-03-14T07:50:23.806Z,77.80
2024-03-14T07:52:51.452Z,77.69
2024-03-14T07:55:19.002Z,77.00
2024-03-14T07:57:48.415Z,75.75
2024-03-14T08:00:16.024Z,74.74
2024-03-14T08:02:46.179Z,74.25
2024-03-14T08:05:13.864Z,74.07
2024-03-14T08:07:41.507Z,73.45
2024-03-14T08:10:10.398Z,73.09
2024-03-14T08:12:38.094Z,72.67
2024-03-14T08:15:05.738Z,71.05
2024-03-14T08:17:35.060Z,70.26
2024-03-14T08:20:02.679Z,70.31
2024-03-14T08:22:32.489Z,69.95
2024-03-14T08:25:00.250Z,69.37
2024-03-14T08:27:27.821Z,68.96
2024-03-14T08:29:56.832Z,68.64
2024-03-14T08:32:24.474Z,68.54
2024-03-14T08:34:52.129Z,68.43
2024-03-14T08:37:21.367Z,67.82
2024-03-14T08:39:49.125Z,67.08
2024-03-14T08:42:16.925Z,67.01
2024-03-14T08:44:45.845Z,65.97
2024-03-14T08:47:13.615Z,64.95
2024-03-14T08:49:41.174Z,64.07
2024-03-14T08:52:10.067Z,63.32
2024-03-14T08:54:37.835Z,63.15
2024-03-14T08:57:06.230Z,62.03
2024-03-14T08:59:36.036Z,62.07
2024-03-14T09:02:03.575Z,62.66
2024-03-14T09:04:31.240Z,62.40
2024-03-14T09:07:00.157Z,61.38
2024-03-14T09:09:27.652Z,60.87
2024-03-14T09:11:55.426Z,59.55
2024-03-14T09:14:24.449Z,59.36
2024-03-14T09:16:52.106Z,58.96
2024-03-14T09:19:19.664Z,58.28
2024-03-14T09:21:48.963Z,57.77
2024-03-14T09:24:16.779Z,57.50
2024-03-14T09:26:44.772Z,56.83
2024-03-14T09:29:13.815Z,57.49
2024-03-14T09:31:41.346Z,57.29
2024-03-14T09:34:09.141Z,57.60
2024-03-14T09:36:38.123Z,57.59
2024-03-14T09:39:05.722Z,57.69
2024-03-14T09:41:34.242Z,56.19
2024-03-14T09:44:03.669Z,56.41
2024-03-14T09:46:31.209Z,55.68
2024-03-14T09:48:58.797Z,54.23
2024-03-14T09:51:27.702Z,54.77
2024-03-14T09:53:55.574Z,54.74
2024-03-14T09:56:23.565Z,53.38
2024-03-14T09:58:54.114Z,54.30
2024-03-14T10:01:22.139Z,51.62
2024-03-14T10:03:51.510Z,53.03
2024-03-14T10:06:20.257Z,54.24
2024-03-14T10:08:50.100Z,52.39
2024-03-14T10:11:18.170Z,50.78
2024-03-14T10:13:47.977Z,50.63
2024-03-14T10:16:15.642Z,50.19
2024-03-14T10:18:43.383Z,48.69
2024-03-14T10:21:12.422Z,49.14
2024-03-14T10:23:40.267Z,49.37
2024-03-14T10:26:08.138Z,49.03
2024-03-14T10:28:37.024Z,45.40
2024-03-14T10:31:04.683Z,46.13
2024-03-14T10:33:33.021Z,46.74
2024-03-14T10:36:02.186Z,44.83
2024-03-14T10:38:30.020Z,43.69
2024-03-14T10:40:57.685Z,44.93
2024-03-14T10:43:26.475Z,45.82
2024-03-14T10:45:54.535Z,46.52
2024-03-14T10:48:22.449Z,47.16
2024-03-14T10:50:51.449Z,46.10
2024-03-14T10:53:19.064Z,45.83
2024-03-14T10:55:46.746Z,45.61
2024-03-14T10:58:16.025Z,45.46
2024-03-14T11:00:43.718Z,46.85
2024-03-14T11:03:11.388Z,47.10
2024-03-14T11:05:40.253Z,46.52
2024-03-14T11:08:08.213Z,46.93
2024-03-14T11:10:35.762Z,47.82
2024-03-14T11:13:04.648Z,48.05
2024-03-14T11:15:32.414Z,47.47
2024-03-14T11:18:00.279Z,46.94
2024-03-14T11:20:29.388Z,47.90
2024-03-14T11:22:56.933Z,48.32
2024-03-14T11:25:24.514Z,47.71
2024-03-14T11:27:53.696Z,48.46
2024-03-14T11:30:21.400Z,49.14
2024-03-14T11:32:49.148Z,48.86
2024-03-14T11:35:18.111Z,48.66
2024-03-14T11:37:45.671Z,48.56
2024-03-14T11:40:13.335Z,48.66
2024-03-14T11:42:42.196Z,48.12
2024-03-14T11:45:10.340Z,47.56
2024-03-14T11:47:38.288Z,46.49
2024-03-14T11:50:07.272Z,45.85
2024-03-14T11:52:34.935Z,45.59
2024-03-14T11:55:02.583Z,47.32
2024-03-14T11:57:31.526Z,47.60
2024-03-14T12:00:06.691Z,46.94
2024-03-14T12:02:37.199Z,47.23
2024-03-14T12:05:04.999Z,47.39
2024-03-14T12:07:32.662Z,49.17
2024-03-14T12:10:01.551Z,48.78
2024-03-14T12:12:29.130Z,48.83
2024-03-14T12:14:56.788Z,48.30
2024-03-14T12:17:26.176Z,47.75
2024-03-14T12:19:53.834Z,48.30
2024-03-14T12:22:23.659Z,47.11
2024-03-14T12:24:51.319Z,46.92
2024-03-14T12:27:19.218Z,46.88
2024-03-14T12:29:48.179Z,46.58
2024-03-14T12:32:15.751Z,46.63
2024-03-14T12:34:43.422Z,47.03
2024-03-14T12:37:12.283Z,44.79
2024-03-14T12:39:39.875Z,45.02
2024-03-14T12:42:07.632Z,44.22
2024-03-14T12:44:36.593Z,43.96
2024-03-14T12:47:04.163Z,43.00
2024-03-14T12:49:31.619Z,43.01
2024-03-14T12:52:00.517Z,43.17
2024-03-14T12:54:28.109Z,43.18
2024-03-14T12:56:55.876Z,43.89
2024-03-14T12:59:27.721Z,41.58
2024-03-14T13:02:01.098Z,41.31
2024-03-14T13:04:28.648Z,42.11
2024-03-14T13:06:56.312Z,42.41
2024-03-14T13:09:24.998Z,43.38
2024-03-14T13:11:52.655Z,43.68
2024-03-14T13:14:20.525Z,44.04
2024-03-14T13:16:49.403Z,43.94
2024-03-14T13:19:17.066Z,44.06
2024-03-14T13:21:44.686Z,43.83
2024-03-14T13:24:13.665Z,42.84
2024-03-14T13:26:41.294Z,42.99
2024-03-14T13:29:08.942Z,43.16
2024-03-14T13:31:37.727Z,42.65
2024-03-14T13:34:05.353Z,43.14
2024-03-14T13:36:33.478Z,43.98
2024-03-14T13:39:02.362Z,44.47
2024-03-14T13:41:30.228Z,44.39
2024-03-14T13:43:57.987Z,44.25
2024-03-14T13:46:26.768Z,45.15
2024-03-14T13:48:54.477Z,45.18
2024-03-14T13:51:22.258Z,45.94
2024-03-14T13:53:51.202Z,46.04
2024-03-14T13:56:18.746Z,45.04
2024-03-14T13:58:46.715Z,45.31
2024-03-14T14:01:15.635Z,46.12
2024-03-14T14:03:43.322Z,45.07
2024-03-14T14:06:11.217Z,45.18
2024-03-14T14:08:40.564Z,45.91
2024-03-14T14:11:08.348Z,45.81
2024-03-14T14:13:36.080Z,44.41
2024-03-14T14:16:04.846Z,45.35
2024-03-14T14:18:32.784Z,44.56
2024-03-14T14:21:00.618Z,45.79
2024-03-14T14:23:29.502Z,46.10
2024-03-14T14:25:57.140Z,46.21
2024-03-14T14:28:24.801Z,46.94
2024-03-14T14:30:53.489Z,48.00
2024-03-14T14:33:21.197Z,48.47
2024-03-14T14:35:49.106Z,48.52
2024-03-14T14:38:17.907Z,48.93
2024-03-14T14:43:49.167Z,49.86
2024-03-14T14:47:14.942Z,49.68
2024-03-14T15:08:10.203Z,49.63
2024-03-14T15:10:40.900Z,50.20
2024-03-14T15:13:14.267Z,50.15
2024-03-14T15:15:49.959Z,50.34
2024-03-14T15:18:22.247Z,50.65
2024-03-14T15:20:53.217Z,50.49
2024-03-14T15:23:28.858Z,50.72
2024-03-14T15:26:05.815Z,51.12
2024-03-14T15:28:38.410Z,50.41
2024-03-14T15:31:12.524Z,50.11
2024-03-14T15:33:45.493Z,50.28
2024-03-14T15:36:19.547Z,50.78
2024-03-14T15:38:52.265Z,50.95
2024-03-14T15:41:23.141Z,51.43
2024-03-14T15:43:55.310Z,52.19
2024-03-14T15:46:26.448Z,53.50
2024-03-14T15:48:58.515Z,53.67
2024-03-14T15:51:29.383Z,55.06
2024-03-14T15:54:01.556Z,55.69
2024-03-14T15:56:34.606Z,56.04
2024-03-14T15:59:06.978Z,56.47
2024-03-14T16:01:38.440Z,56.62
2024-03-14T16:04:10.421Z,56.84
2024-03-14T16:06:41.611Z,56.75
2024-03-14T16:09:16.187Z,57.12
2024-03-14T16:11:49.309Z,57.11
2024-03-14T16:14:20.288Z,57.09
2024-03-14T16:16:52.324Z,57.75
2024-03-14T16:19:25.240Z,58.20
2024-03-14T16:21:57.553Z,59.20
2024-03-14T16:24:29.259Z,59.40
2024-03-14T16:27:01.268Z,59.74
2024-03-14T16:29:32.354Z,60.38
2024-03-14T16:32:05.463Z,60.48
2024-03-14T16:34:36.297Z,60.53
2024-03-14T16:37:08.617Z,61.10
2024-03-14T16:39:39.479Z,61.79
2024-03-14T16:42:11.892Z,62.10
2024-03-14T16:44:42.920Z,62.47
2024-03-14T16:47:14.876Z,63.50
2024-03-14T16:49:46.332Z,64.62
2024-03-14T16:52:18.290Z,64.74
2024-03-14T16:54:49.092Z,64.70
2024-03-14T16:57:23.866Z,64.93
2024-03-14T16:59:58.077Z,65.05
2024-03-14T17:02:29.008Z,65.01
2024-03-14T17:05:02.628Z,65.16
2024-03-14T17:07:33.447Z,65.68
2024-03-14T17:10:05.887Z,65.80
2024-03-14T17:12:36.751Z,66.54
2024-03-14T17:15:09.410Z,67.11
2024-03-14T17:17:41.192Z,67.22
2024-03-14T17:20:14.247Z,68.06
2024-03-14T17:22:45.934Z,68.40
2024-03-14T17:25:20.488Z,68.57
2024-03-14T17:27:56.177Z,68.59
2024-03-14T17:30:29.305Z,68.45
2024-03-14T17:33:00.434Z,68.77
2024-03-14T17:35:33.228Z,69.00
2024-03-14T17:38:03.951Z,69.10
2024-03-14T17:40:36.020Z,70.05
2024-03-14T17:43:12.624Z,70.40
2024-03-14T17:45:44.891Z,70.43
2024-03-14T17:48:15.754Z,70.98
2024-03-14T17:50:47.861Z,71.41
2024-03-14T17:53:20.847Z,72.01
2024-03-14T17:55:52.811Z,72.33
2024-03-14T17:58:23.653Z,72.81
2024-03-14T18:00:55.925Z,73.30
2024-03-14T18:03:28.442Z,73.16
2024-03-14T18:06:00.573Z,73.26
2024-03-14T18:08:31.405Z,73.12
2024-03-14T18:11:05.629Z,73.40
2024-03-14T18:13:40.865Z,73.63
2024-03-14T18:16:14.378Z,74.26
2024-03-14T18:18:46.024Z,74.39
2024-03-14T18:21:18.188Z,74.16
2024-03-14T18:23:49.005Z,74.11
2024-03-14T18:26:24.148Z,74.35
2024-03-14T18:28:57.644Z,74.79
2024-03-14T18:31:37.380Z,74.77
2024-03-14T18:34:11.076Z,74.47
2024-03-14T18:36:43.259Z,74.85
2024-03-14T18:39:15.469Z,74.54
2024-03-14T18:41:48.410Z,74.82
2024-03-14T18:44:23.034Z,74.55
2024-03-14T18:46:57.858Z,74.74
2024-03-14T18:49:29.418Z,74.74
2024-03-14T18:52:01.651Z,74.86
2024-03-14T18:54:42.582Z,75.43
2024-03-14T18:57:18.264Z,75.46
2024-03-14T18:59:49.043Z,75.80
2024-03-14T19:02:22.904Z,75.55
2024-03-14T19:04:54.164Z,75.91
2024-03-14T19:07:26.462Z,75.81
2024-03-14T19:09:57.209Z,75.60
2024-03-14T19:12:29.372Z,75.21
2024-03-14T19:15:00.429Z,74.65
2024-03-14T19:17:32.592Z,74.85
2024-03-14T19:20:06.593Z,75.39
2024-03-14T19:22:39.233Z,75.77
2024-03-14T19:25:11.730Z,76.36
2024-03-14T19:27:43.730Z,76.10
2024-03-14T19:30:15.720Z,76.07
2024-03-14T19:32:50.531Z,75.94
2024-03-14T19:35:23.591Z,75.71
2024-03-14T19:37:54.413Z,75.50
2024-03-14T19:40:26.999Z,75.80
2024-03-14T19:42:59.290Z,75.75
2024-03-14T19:45:32.984Z,75.33
2024-03-14T19:48:04.552Z,75.45
2024-03-14T19:50:37.024Z,75.07
2024-03-14T19:53:08.232Z,74.86
2024-03-14T19:55:40.399Z,74.91
2024-03-14T19:58:13.587Z,75.23
2024-03-14T20:00:47.134Z,75.33
2024-03-14T20:03:18.798Z,75.10
2024-03-14T20:05:51.132Z,75.19
2024-03-14T20:08:22.231Z,75.33
2024-03-14T20:10:54.953Z,76.07
2024-03-14T20:13:27.622Z,76.00
2024-03-14T20:15:59.867Z,76.03
2024-03-14T20:18:30.958Z,76.08
2024-03-14T20:21:04.488Z,76.30
2024-03-14T20:23:35.172Z,76.74
2024-03-14T20:26:09.588Z,77.10
2024-03-14T20:28:40.675Z,77.01
2024-03-14T20:31:12.835Z,76.65
2024-03-14T20:33:44.744Z,76.28
2024-03-14T20:36:17.177Z,76.16
2024-03-14T20:38:49.083Z,76.06
2024-03-14T20:41:24.744Z,76.11
2024-03-14T20:43:57.522Z,75.92
2024-03-14T20:46:28.525Z,76.29
2024-03-14T20:49:00.814Z,76.39
2024-03-14T20:51:31.778Z,76.53
2024-03-14T20:54:05.976Z,76.48
2024-03-14T20:56:50.341Z,76.71
2024-03-14T20:59:25.173Z,76.78
2024-03-14T21:01:58.161Z,76.96
2024-03-14T21:04:29.889Z,77.33
2024-03-14T21:07:03.623Z,77.42
2024-03-14T21:09:34.347Z,77.43
2024-03-14T21:12:09.406Z,77.46
2024-03-14T21:14:43.178Z,77.45
2024-03-14T21:17:13.811Z,77.48
2024-03-14T21:19:46.901Z,77.51
2024-03-14T21:22:17.943Z,77.45
2024-03-14T21:24:50.722Z,77.55
2024-03-14T21:27:24.820Z,77.50
2024-03-14T21:29:56.913Z,77.48
2024-03-14T21:32:28.042Z,77.71
2024-03-14T21:35:00.116Z,77.79
2024-03-14T21:37:32.253Z,77.90
2024-03-14T21:40:07.133Z,78.03
2024-03-14T21:42:40.802Z,78.22
2024-03-14T21:45:12.204Z,78.06
2024-03-14T21:47:45.282Z,78.30
2024-03-14T21:50:18.285Z,78.67
2024-03-14T21:52:51.420Z,78.24
2024-03-14T21:55:22.989Z,78.36
2024-03-14T21:57:57.239Z,78.73
2024-03-14T22:00:31.048Z,79.08
2024-03-14T22:03:02.315Z,79.27
2024-03-14T22:05:34.751Z,79.28
2024-03-14T22:08:06.163Z,79.72
2024-03-14T22:10:38.432Z,79.71
2024-03-14T22:13:11.218Z,79.45
2024-03-14T22:15:45.155Z,79.27
2024-03-14T22:18:19.593Z,79.25
2024-03-14T22:20:53.349Z,79.23
2024-03-14T22:23:24.077Z,79.52
2024-03-14T22:25:55.944Z,79.41
2024-03-14T22:28:26.888Z,79.70
2024-03-14T22:31:10.314Z,80.09
2024-03-14T22:33:44.776Z,79.83
2024-03-14T22:36:16.091Z,80.10
2024-03-14T22:38:49.070Z,79.95
2024-03-14T22:41:20.720Z,80.15
2024-03-14T22:43:52.686Z,79.99
2024-03-14T22:46:23.409Z,80.02
2024-03-14T22:48:56.809Z,80.08
2024-03-14T22:51:32.265Z,79.69
2024-03-14T22:54:05.229Z,80.30
2024-03-14T22:56:37.730Z,80.50
2024-03-14T22:59:08.655Z,80.92
2024-03-14T23:01:40.892Z,81.14
2024-03-14T23:04:12.812Z,80.95
2024-03-14T23:06:44.802Z,81.20
2024-03-14T23:09:16.029Z,81.20
2024-03-14T23:11:48.056Z,81.42
2024-03-14T23:14:18.808Z,81.53
2024-03-14T23:16:52.623Z,81.32
2024-03-14T23:19:24.208Z,81.37
2024-03-14T23:21:56.329Z,81.23
2024-03-14T23:24:27.047Z,81.93
2024-03-14T23:26:59.186Z,82.03
2024-03-14T23:29:29.957Z,82.11
2024-03-14T23:32:04.058Z,82.22
2024-03-14T23:34:35.608Z,82.41
2024-03-14T23:37:08.720Z,82.24
2024-03-14T23:39:39.406Z,82.32
2024-03-14T23:42:12.079Z,82.37
2024-03-14T23:44:42.742Z,81.97
2024-03-14T23:47:14.916Z,82.14
2024-03-14T23:49:45.747Z,82.21
2024-03-14T23:52:17.813Z,81.99
2024-03-14T23:54:48.595Z,82.13
2024-03-14T23:57:21.460Z,81.74
2024-03-14T23:59:52.485Z,81.76
